首页
METAR-TAF:

METAR-TAF

机场 :

伯恩茅斯, 英格兰

纬度: 50-47N, 经度: 001-50W, 海拔: 11米

当前天气观测

该预报发布于19分钟前的17:50 UTC
风速8节,风向
温度 29°C
湿度 43%
气压 1012 hPa
能见度10公里或以上
少量云层高于3500英尺

METAR: EGHH 231750Z 09008KT 9999 FEW035 29/15 Q1012

时间: 19:09 (18:09 UTC)

预报

该预报发布于1小时和14分钟前的16:55 UTC
预报有效从23日的 18点(UTC)到 24日的 03点(UTC)
风速11节,风向东转东南
能见度10公里或以上
少量云层高于4500英尺
几率 30% :
短暂存在
从 23日的 18点(UTC)到 23日的 20点(UTC)
能見度: 6000
阵雨, 雷暴, 雨
短暂存在
从 23日的 20点(UTC)到 24日的 03点(UTC)
风速15节,风向东转东南,有时为28节阵风
能見度: 3000
大阵雨, 雷暴, (大) 小冰雹或雪球
成为
从 24日的 00点(UTC)到 24日的 03点(UTC)
风速7节,风向西南

TAF: EGHH 231655Z 2318/2403 12011KT 9999 FEW045 PROB30 TEMPO 2318/2320 6000 SHRA TSRA TEMPO 2320/2403 11015G28KT 3000 +SHRA +TSGS BECMG 2400/2403 23007KT

超过4000个机场的气象观测和天气预报(METAR&TAF报告)。

可查询的气象台以黄色和红色小点在地图上表示。

将鼠标移到小点上方,可查看气象台名称。

然后点击查看天气观测和预报。

如需切换地图:点击带黑十字的绿色按钮放大地图;点击带横线的绿色按钮缩小地图;或者点击绿色箭头查看邻近地区的地图。


METAR-TAF: